Terminal Aerodrome Forecast
Issued by NWS

Home | Current Version | Previous Version | Text Only | Print | Product List | Glossary On
Versions: 1 2 3 4 5 6 7 8 9 10 11 12
000
FTUS46 KPDT 312300
TAFPSC
TAF
KPSC 312328Z 0100/0124 VRB04KT P6SM SCT160 BKN200
     FM010400 VRB03KT P6SM SCT160 BKN200
     FM010800 VRB03KT P6SM SCT140 BKN200
     FM011200 VRB03KT P6SM BKN130 BKN150
     FM011900 18004KT P6SM FEW150 SCT200=

USA.gov is the U.S. government's official web portal to all federal, state and local government web resources and services.